Time;durP1;ratioP1;P1;durP2;ratioP2;P2;SDS_P1;SDS_P2;PMS_P1;PMS_P2;Temp;Humidity;BMP_temperature;BMP_pressure;BME280_temperature;BME280_humidity;BME280_pressure;Samples;Min_cycle;Max_cycle;Signal;HPM_P1;HPM_P2
2022/12/24 00:00:39;;;;;;;0.20;0.10;;;10.90;99.90;;;;;;5033419;28;20633;-52
2022/12/24 00:03:06;;;;;;;0.30;0.10;;;10.90;99.90;;;;;;5016442;28;20631;-53
2022/12/24 00:05:36;;;;;;;0.07;0.00;;;10.80;99.90;;;;;;5030195;28;20616;-52
2022/12/24 00:08:04;;;;;;;0.13;0.10;;;10.80;99.90;;;;;;5016254;28;20320;-49
2022/12/24 00:10:32;;;;;;;1.27;0.10;;;10.80;99.90;;;;;;5012023;28;20665;-49
2022/12/24 00:12:59;;;;;;;0.13;0.10;;;10.90;99.90;;;;;;5011742;28;20252;-50
2022/12/24 00:15:26;;;;;;;0.33;0.10;;;10.90;99.90;;;;;;5012880;28;20197;-50
2022/12/24 00:17:53;;;;;;;0.63;0.17;;;10.80;99.90;;;;;;5012586;28;20215;-49
2022/12/24 00:20:20;;;;;;;0.10;0.10;;;10.80;99.90;;;;;;5011869;28;20201;-50
2022/12/24 00:22:47;;;;;;;0.20;0.10;;;10.90;99.90;;;;;;5011851;28;20206;-50
2022/12/24 00:25:14;;;;;;;0.10;0.10;;;10.80;99.90;;;;;;5012172;28;20216;-50
2022/12/24 00:27:43;;;;;;;0.10;0.10;;;10.80;99.90;;;;;;5012441;28;20729;-49
2022/12/24 00:30:10;;;;;;;1.27;0.10;;;10.80;99.90;;;;;;5012692;28;20199;-50
2022/12/24 00:32:37;;;;;;;0.10;0.10;;;10.70;99.90;;;;;;5011598;28;20204;-50
2022/12/24 00:35:05;;;;;;;0.10;0.10;;;10.70;99.90;;;;;;5011950;28;20213;-50
2022/12/24 00:37:32;;;;;;;0.40;0.10;;;10.60;99.90;;;;;;5012823;28;20785;-50
2022/12/24 00:39:59;;;;;;;0.07;0.07;;;10.60;99.90;;;;;;5013091;28;20207;-50
2022/12/24 00:42:26;;;;;;;0.00;0.00;;;10.50;99.90;;;;;;5011412;28;20272;-51
2022/12/24 00:44:54;;;;;;;0.20;0.10;;;10.40;99.90;;;;;;5009719;28;20292;-51
2022/12/24 00:47:21;;;;;;;0.10;0.10;;;10.40;99.90;;;;;;5007913;28;20206;-50
2022/12/24 00:49:48;;;;;;;0.10;0.10;;;10.30;99.90;;;;;;5012549;28;20225;-50
2022/12/24 00:52:16;;;;;;;0.03;0.03;;;10.30;99.90;;;;;;5012151;28;20241;-50
2022/12/24 00:54:43;;;;;;;1.30;0.10;;;10.30;99.90;;;;;;5010830;28;20562;-50
2022/12/24 00:57:10;;;;;;;0.10;0.10;;;10.30;99.90;;;;;;5012394;28;20265;-50
2022/12/24 00:59:37;;;;;;;0.30;0.10;;;10.20;99.90;;;;;;5012597;28;20215;-50
2022/12/24 01:02:06;;;;;;;0.00;0.00;;;10.20;99.90;;;;;;5011622;28;20214;-50
2022/12/24 01:07:18;;;;;;;0.10;0.10;;;10.10;99.90;;;;;;5007302;28;20298;-50
2022/12/24 01:09:45;;;;;;;0.93;0.17;;;10.20;99.90;;;;;;5011471;28;20281;-50
2022/12/24 01:12:11;;;;;;;0.10;0.10;;;10.20;99.90;;;;;;5010460;28;20631;-51
2022/12/24 01:14:38;;;;;;;0.10;0.10;;;10.20;99.90;;;;;;5010146;28;20214;-50
2022/12/24 01:17:07;;;;;;;0.00;0.00;;;10.30;99.90;;;;;;5010325;28;20206;-50
2022/12/24 01:19:34;;;;;;;0.23;0.23;;;10.30;99.90;;;;;;5011399;28;20577;-50
2022/12/24 01:22:01;;;;;;;0.10;0.10;;;10.40;99.90;;;;;;5011992;28;20207;-53
2022/12/24 01:24:28;;;;;;;0.10;0.10;;;10.40;99.90;;;;;;5012468;28;20209;-53
2022/12/24 01:26:55;;;;;;;0.10;0.10;;;10.50;99.90;;;;;;5011484;28;20201;-53
2022/12/24 01:29:22;;;;;;;0.93;0.10;;;10.40;99.90;;;;;;5009355;28;20634;-53
2022/12/24 01:31:49;;;;;;;0.20;0.10;;;10.30;99.90;;;;;;5011961;28;20209;-53
2022/12/24 01:34:18;;;;;;;0.00;0.00;;;10.40;99.90;;;;;;5012197;28;20207;-53
2022/12/24 01:36:45;;;;;;;0.30;0.10;;;10.50;99.90;;;;;;5010797;28;20204;-53
2022/12/24 01:39:11;;;;;;;0.10;0.10;;;10.50;99.90;;;;;;5008760;28;20222;-53
2022/12/24 01:44:26;;;;;;;0.10;0.10;;;10.40;99.90;;;;;;5012133;28;20207;-53
2022/12/24 01:47:03;;;;;;;1.13;0.20;;;10.40;99.90;;;;;;5011481;28;20197;-52
2022/12/24 01:49:32;;;;;;;0.67;0.10;;;10.40;99.90;;;;;;5009953;28;20637;-53
2022/12/24 01:52:03;;;;;;;0.17;0.10;;;10.40;99.90;;;;;;5004311;28;20273;-51
2022/12/24 01:54:32;;;;;;;0.93;0.10;;;10.40;99.90;;;;;;5011885;28;20632;-53
2022/12/24 01:57:04;;;;;;;0.37;0.37;;;10.40;99.90;;;;;;5011266;28;20261;-52
2022/12/24 01:59:33;;;;;;;1.50;0.10;;;10.30;99.90;;;;;;5010337;28;20244;-53
2022/12/24 02:02:01;;;;;;;0.47;0.03;;;10.30;99.90;;;;;;5011884;28;20246;-53
2022/12/24 02:04:37;;;;;;;0.20;0.20;;;10.30;99.90;;;;;;5011302;28;20292;-52
2022/12/24 02:07:04;;;;;;;0.87;0.20;;;10.20;99.90;;;;;;5010219;28;20205;-53
2022/12/24 02:09:33;;;;;;;0.20;0.10;;;10.20;99.90;;;;;;5019884;28;20584;-53
2022/12/24 02:12:00;;;;;;;0.10;0.10;;;10.20;99.90;;;;;;5031592;28;20216;-53
2022/12/24 02:14:31;;;;;;;0.70;0.20;;;10.20;99.90;;;;;;5025379;28;20209;-52
2022/12/24 02:17:05;;;;;;;1.80;0.20;;;10.10;99.90;;;;;;5013952;28;20248;-52
2022/12/24 02:20:11;;;;;;;0.20;0.20;;;10.10;99.90;;;;;;5022597;28;20282;-53
2022/12/24 02:22:57;;;;;;;0.10;0.10;;;10.10;99.90;;;;;;5031422;28;20261;-53
2022/12/24 02:25:34;;;;;;;0.13;0.10;;;10.20;99.90;;;;;;5027863;28;20208;-53
2022/12/24 02:28:12;;;;;;;0.13;0.10;;;10.20;99.90;;;;;;5011736;28;20222;-53
2022/12/24 02:30:43;;;;;;;1.70;0.10;;;10.20;99.90;;;;;;5029023;28;20201;-51
2022/12/24 02:33:19;;;;;;;0.70;0.20;;;10.30;99.90;;;;;;5031433;28;20673;-53
2022/12/24 02:35:51;;;;;;;0.10;0.10;;;10.30;99.90;;;;;;5020684;28;20260;-53
2022/12/24 02:38:25;;;;;;;1.40;0.20;;;10.20;99.90;;;;;;5027985;28;20587;-50
2022/12/24 02:40:56;;;;;;;0.40;0.13;;;10.30;99.90;;;;;;5034330;28;20199;-50
2022/12/24 02:43:26;;;;;;;1.03;0.10;;;10.40;99.90;;;;;;5035249;28;20254;-50
2022/12/24 02:45:58;;;;;;;0.10;0.10;;;10.40;99.90;;;;;;5031335;28;20205;-50
2022/12/24 02:48:27;;;;;;;0.10;0.10;;;10.30;99.90;;;;;;5027565;28;20225;-49
2022/12/24 02:51:02;;;;;;;0.00;0.00;;;10.30;99.90;;;;;;5034408;28;20208;-50
2022/12/24 02:53:29;;;;;;;0.20;0.20;;;10.30;99.90;;;;;;5016617;28;20208;-51
2022/12/24 02:56:13;;;;;;;0.40;0.10;;;10.30;99.90;;;;;;5015246;28;20241;-50
2022/12/24 02:58:52;;;;;;;0.00;0.00;;;10.30;99.90;;;;;;5026894;28;20221;-50
2022/12/24 03:01:31;;;;;;;3.73;0.83;;;10.20;99.90;;;;;;5034013;28;20208;-50
2022/12/24 03:04:11;;;;;;;0.17;0.17;;;10.20;99.90;;;;;;5034932;28;20212;-50
2022/12/24 03:06:44;;;;;;;0.70;0.10;;;10.10;99.90;;;;;;5034514;28;20209;-50
2022/12/24 03:09:25;;;;;;;0.20;0.20;;;10.20;99.90;;;;;;5024694;28;20226;-50
2022/12/24 03:11:59;;;;;;;0.63;0.10;;;10.10;99.90;;;;;;5034613;28;20193;-49
2022/12/24 03:14:27;;;;;;;0.10;0.10;;;10.10;99.90;;;;;;5034525;28;20202;-51
2022/12/24 03:17:00;;;;;;;0.10;0.10;;;10.20;99.90;;;;;;5034468;28;20224;-50
2022/12/24 03:19:28;;;;;;;0.40;0.10;;;10.20;99.90;;;;;;5027116;28;20220;-50
2022/12/24 03:21:59;;;;;;;0.10;0.10;;;10.20;99.90;;;;;;5025627;28;20254;-50
2022/12/24 03:24:26;;;;;;;0.30;0.10;;;10.20;99.90;;;;;;5034101;28;20204;-50
2022/12/24 03:26:55;;;;;;;1.13;0.00;;;10.20;99.90;;;;;;5034263;28;20202;-51
2022/12/24 03:29:22;;;;;;;0.10;0.10;;;10.20;99.90;;;;;;5027019;28;20231;-50
2022/12/24 03:31:54;;;;;;;0.10;0.00;;;10.20;99.90;;;;;;5033810;28;20625;-50
2022/12/24 03:34:22;;;;;;;0.03;0.03;;;10.20;99.90;;;;;;5020593;28;20901;-50
2022/12/24 03:36:50;;;;;;;0.00;0.00;;;10.20;99.90;;;;;;5033721;28;20204;-51
2022/12/24 03:39:17;;;;;;;0.00;0.00;;;10.20;99.90;;;;;;5026126;28;20636;-50
2022/12/24 03:41:44;;;;;;;0.20;0.00;;;10.30;99.90;;;;;;5033851;28;20282;-51
2022/12/24 03:44:11;;;;;;;0.27;0.00;;;10.30;99.90;;;;;;5033816;28;20200;-50
2022/12/24 03:46:38;;;;;;;0.67;0.10;;;10.50;99.90;;;;;;5023670;28;20634;-50
2022/12/24 03:49:05;;;;;;;0.10;0.10;;;10.50;99.90;;;;;;5018027;28;20226;-50
2022/12/24 03:51:33;;;;;;;0.00;0.00;;;10.50;99.90;;;;;;5030071;28;20199;-51
2022/12/24 03:54:00;;;;;;;0.00;0.00;;;10.50;99.90;;;;;;5033739;28;20208;-50
2022/12/24 03:56:27;;;;;;;0.20;0.20;;;10.50;99.90;;;;;;5033754;28;20632;-51
2022/12/24 03:58:54;;;;;;;0.73;0.10;;;10.40;99.90;;;;;;5023205;28;20768;-51
2022/12/24 04:01:21;;;;;;;0.20;0.13;;;10.30;99.90;;;;;;5028722;28;20262;-50
2022/12/24 04:03:48;;;;;;;1.30;0.10;;;10.30;99.90;;;;;;5033204;28;20205;-50
2022/12/24 04:06:17;;;;;;;0.93;0.10;;;10.10;99.90;;;;;;5033647;28;20203;-50
2022/12/24 04:08:46;;;;;;;0.00;0.00;;;10.20;99.90;;;;;;5080977;22;20230;-51
2022/12/24 04:11:15;;;;;;;1.30;0.10;;;10.20;99.90;;;;;;5077954;28;20207;-51
2022/12/24 04:13:41;;;;;;;1.03;0.00;;;10.20;99.90;;;;;;5089656;28;20203;-51
2022/12/24 04:16:11;;;;;;;0.00;0.00;;;10.10;99.90;;;;;;5091658;28;20274;-52
2022/12/24 04:18:39;;;;;;;0.00;0.00;;;10.10;99.90;;;;;;5080376;28;20836;-52
2022/12/24 04:21:08;;;;;;;0.47;0.00;;;10.00;99.90;;;;;;5071510;28;20195;-51
2022/12/24 04:23:36;;;;;;;0.00;0.00;;;10.00;99.90;;;;;;5069303;28;20207;-50
2022/12/24 04:26:06;;;;;;;0.20;0.10;;;10.00;99.90;;;;;;5064010;28;20252;-51
2022/12/24 04:28:35;;;;;;;0.00;0.00;;;10.00;99.90;;;;;;5069831;28;20299;-52
2022/12/24 04:31:03;;;;;;;0.10;0.00;;;9.90;99.90;;;;;;5071058;28;20209;-51
2022/12/24 04:33:30;;;;;;;0.00;0.00;;;9.90;99.90;;;;;;5071341;28;20208;-51
2022/12/24 04:35:58;;;;;;;0.00;0.00;;;9.80;99.90;;;;;;5069727;28;20200;-52
2022/12/24 04:38:25;;;;;;;0.00;0.00;;;9.80;99.90;;;;;;5069117;28;20227;-51
2022/12/24 04:40:59;;;;;;;0.17;0.07;;;9.90;99.90;;;;;;5070817;28;20298;-52
2022/12/24 04:43:28;;;;;;;0.00;0.00;;;9.80;99.90;;;;;;5071034;28;20203;-51
2022/12/24 04:45:55;;;;;;;0.43;0.00;;;9.90;99.90;;;;;;5071020;28;20203;-52
2022/12/24 04:48:23;;;;;;;0.00;0.00;;;9.90;99.90;;;;;;5068902;28;20587;-52
2022/12/24 04:50:49;;;;;;;0.10;0.10;;;9.90;99.90;;;;;;5070525;28;20222;-51
2022/12/24 04:53:16;;;;;;;0.00;0.00;;;9.90;99.90;;;;;;5070799;28;20203;-52
2022/12/24 04:55:46;;;;;;;0.10;0.10;;;9.90;99.90;;;;;;5069974;28;20207;-52
2022/12/24 04:58:14;;;;;;;0.00;0.00;;;9.80;99.90;;;;;;5069488;28;20226;-52
2022/12/24 05:00:42;;;;;;;0.13;0.00;;;9.80;99.90;;;;;;5069001;28;20195;-51
2022/12/24 05:03:09;;;;;;;0.00;0.00;;;9.80;99.90;;;;;;5070298;28;20202;-52
2022/12/24 05:05:36;;;;;;;0.00;0.00;;;9.70;99.90;;;;;;5070499;28;20655;-51
2022/12/24 05:08:03;;;;;;;0.00;0.00;;;9.70;99.90;;;;;;5068744;28;20581;-51
2022/12/24 05:10:30;;;;;;;0.40;0.00;;;9.70;99.90;;;;;;5070260;28;20310;-51
2022/12/24 05:12:57;;;;;;;0.63;0.00;;;9.70;99.90;;;;;;5050892;28;20577;-52
2022/12/24 05:15:24;;;;;;;0.67;0.00;;;9.60;99.90;;;;;;5065900;28;20243;-51
2022/12/24 05:17:53;;;;;;;1.40;0.03;;;9.60;99.90;;;;;;5070040;28;20271;-52
2022/12/24 05:20:20;;;;;;;0.00;0.00;;;9.60;99.90;;;;;;5070035;28;20199;-52
2022/12/24 05:28:20;;;;;;;0.00;0.00;;;9.60;99.90;;;;;;5056154;28;20275;-52
2022/12/24 05:30:47;;;;;;;0.00;0.00;;;9.50;99.90;;;;;;5069997;28;20215;-52
2022/12/24 05:33:16;;;;;;;0.00;0.00;;;9.50;99.90;;;;;;5070395;28;20207;-51
2022/12/24 05:35:43;;;;;;;0.80;0.00;;;9.50;99.90;;;;;;5070337;28;20265;-51
2022/12/24 05:38:10;;;;;;;1.33;0.10;;;9.50;99.90;;;;;;5067386;28;20224;-52
2022/12/24 05:40:37;;;;;;;0.37;0.37;;;9.40;99.90;;;;;;5069946;28;20197;-51
2022/12/24 05:43:04;;;;;;;0.20;0.10;;;9.30;99.90;;;;;;5070035;28;20206;-52
2022/12/24 05:45:31;;;;;;;0.67;0.20;;;9.30;99.90;;;;;;5065578;28;20274;-51
2022/12/24 05:47:57;;;;;;;1.60;1.23;;;9.30;99.90;;;;;;5062752;28;20224;-52
2022/12/24 05:50:26;;;;;;;0.20;0.20;;;9.20;99.90;;;;;;5061331;28;20303;-51
2022/12/24 05:52:53;;;;;;;0.17;0.17;;;9.20;99.90;;;;;;5069824;28;20201;-51
2022/12/24 05:55:20;;;;;;;2.33;2.17;;;9.20;99.90;;;;;;5068649;28;20211;-51
2022/12/24 05:57:47;;;;;;;1.37;0.77;;;9.10;99.90;;;;;;5061754;28;20193;-51
2022/12/24 06:00:15;;;;;;;1.03;0.50;;;9.00;99.90;;;;;;5064139;28;20203;-51
2022/12/24 06:02:42;;;;;;;0.80;0.80;;;9.00;99.90;;;;;;5077811;28;20204;-51
2022/12/24 06:05:09;;;;;;;52.00;23.87;;;8.90;99.90;;;;;;5067880;28;20527;-52
2022/12/24 06:07:38;;;;;;;47.03;22.20;;;8.90;99.90;;;;;;5084153;28;20260;-52
2022/12/24 06:10:06;;;;;;;1.03;1.03;;;8.90;99.90;;;;;;5068434;28;20720;-51
2022/12/24 06:12:33;;;;;;;0.93;0.33;;;8.90;99.90;;;;;;5073575;28;20271;-51
2022/12/24 06:15:00;;;;;;;0.30;0.30;;;8.90;99.90;;;;;;5062205;28;20211;-52
2022/12/24 06:17:27;;;;;;;0.23;0.23;;;8.80;99.90;;;;;;5071573;28;20198;-52
2022/12/24 06:19:54;;;;;;;1.03;0.33;;;8.80;99.90;;;;;;5069692;28;20212;-52
2022/12/24 06:22:21;;;;;;;0.20;0.20;;;8.80;99.90;;;;;;5058483;28;20211;-52
2022/12/24 06:24:50;;;;;;;0.50;0.50;;;8.70;99.90;;;;;;5070366;28;20226;-52
2022/12/24 06:27:16;;;;;;;1.67;0.63;;;8.70;99.90;;;;;;5059119;28;20203;-51
2022/12/24 06:29:43;;;;;;;0.87;0.87;;;8.70;99.90;;;;;;5072115;28;20219;-52
2022/12/24 06:32:10;;;;;;;1.33;1.30;;;8.60;99.90;;;;;;5073009;28;20203;-51
2022/12/24 06:34:37;;;;;;;1.90;1.47;;;8.60;99.90;;;;;;5071363;28;20199;-52
2022/12/24 06:37:05;;;;;;;0.57;0.57;;;8.50;99.90;;;;;;5064675;28;20199;-51
2022/12/24 06:39:32;;;;;;;0.83;0.83;;;8.60;99.90;;;;;;5069126;28;20292;-51
2022/12/24 06:42:00;;;;;;;0.60;0.60;;;8.60;99.90;;;;;;5064743;28;20627;-52
2022/12/24 06:44:27;;;;;;;1.70;1.23;;;8.50;99.90;;;;;;5072228;28;20203;-52
2022/12/24 06:46:58;;;;;;;0.73;0.63;;;8.50;99.90;;;;;;5061615;28;20266;-51
2022/12/24 06:49:25;;;;;;;1.00;1.00;;;8.60;99.90;;;;;;5058357;28;20218;-51
2022/12/24 06:51:52;;;;;;;1.10;1.10;;;8.60;99.90;;;;;;5072798;28;20198;-51
2022/12/24 06:54:20;;;;;;;1.73;0.80;;;8.50;99.90;;;;;;5072947;28;20688;-51
2022/12/24 06:56:46;;;;;;;0.83;0.83;;;8.50;99.90;;;;;;5063865;28;20207;-51
2022/12/24 06:59:15;;;;;;;1.80;1.70;;;8.50;99.90;;;;;;5076123;28;20219;-51
2022/12/24 07:01:42;;;;;;;1.33;1.33;;;8.50;99.90;;;;;;5063267;28;20268;-52
2022/12/24 07:04:09;;;;;;;1.60;1.37;;;8.50;99.90;;;;;;5056216;28;20838;-50
2022/12/24 07:06:36;;;;;;;1.90;1.03;;;8.40;99.90;;;;;;5065233;28;20740;-51
2022/12/24 07:09:04;;;;;;;0.80;0.80;;;8.40;99.90;;;;;;5062317;28;20254;-52
2022/12/24 07:11:30;;;;;;;0.70;0.70;;;8.50;99.90;;;;;;5072570;28;20219;-51
2022/12/24 07:13:57;;;;;;;1.47;1.37;;;8.50;99.90;;;;;;5055051;28;20230;-52
2022/12/24 07:16:26;;;;;;;3.07;2.53;;;8.60;99.90;;;;;;5055758;28;20277;-51
2022/12/24 07:18:53;;;;;;;4.60;2.50;;;8.60;99.90;;;;;;5069945;28;20219;-51
2022/12/24 07:21:20;;;;;;;3.20;2.90;;;8.60;99.90;;;;;;5065081;28;20256;-52
2022/12/24 07:23:47;;;;;;;1.73;1.63;;;8.50;99.90;;;;;;5069936;28;20207;-52
2022/12/24 07:26:14;;;;;;;1.50;1.20;;;8.40;99.90;;;;;;5059391;28;20267;-51
2022/12/24 07:28:41;;;;;;;2.43;1.50;;;8.50;99.90;;;;;;5067623;28;20229;-52
2022/12/24 07:31:08;;;;;;;2.63;2.03;;;8.40;99.90;;;;;;5067629;28;20223;-52
2022/12/24 07:33:36;;;;;;;2.40;2.17;;;8.40;99.90;;;;;;5072279;28;20266;-51
2022/12/24 07:36:05;;;;;;;2.13;1.70;;;8.40;99.90;;;;;;5069824;28;20663;-49
2022/12/24 07:38:34;;;;;;;0.40;0.40;;;8.40;99.90;;;;;;5067267;28;20227;-52
2022/12/24 07:41:01;;;;;;;0.73;0.50;;;8.40;99.90;;;;;;5072187;28;20220;-49
2022/12/24 07:43:28;;;;;;;0.80;0.80;;;8.50;99.90;;;;;;5072279;28;20207;-50
2022/12/24 07:45:56;;;;;;;0.30;0.30;;;8.50;99.90;;;;;;5071499;28;20217;-51
2022/12/24 07:48:23;;;;;;;0.80;0.70;;;8.40;99.90;;;;;;5064012;28;20244;-50
2022/12/24 07:50:52;;;;;;;2.23;0.60;;;8.30;99.90;;;;;;5067898;28;20301;-51
2022/12/24 07:53:20;;;;;;;0.80;0.60;;;8.40;99.90;;;;;;5072136;28;20209;-50
2022/12/24 07:55:47;;;;;;;0.50;0.40;;;8.30;99.90;;;;;;5058224;28;20212;-51
2022/12/24 07:58:14;;;;;;;1.37;0.60;;;8.30;99.90;;;;;;5066554;28;20293;-50
2022/12/24 08:00:42;;;;;;;2.07;1.53;;;8.30;99.90;;;;;;5065274;28;20227;-52
2022/12/24 08:03:15;;;;;;;1.50;0.40;;;8.20;99.90;;;;;;5064624;28;20207;-51
2022/12/24 08:05:43;;;;;;;1.37;0.63;;;8.20;99.90;;;;;;5065994;28;20268;-51
2022/12/24 08:08:12;;;;;;;8.27;7.67;;;8.30;99.90;;;;;;5065451;28;20320;-51
2022/12/24 08:10:39;;;;;;;27.93;25.73;;;8.30;99.90;;;;;;5066221;28;20314;-51
2022/12/24 08:13:06;;;;;;;22.10;20.33;;;8.40;99.90;;;;;;5065700;28;20708;-50
2022/12/24 08:15:33;;;;;;;5.57;5.27;;;8.40;99.90;;;;;;5067248;28;20678;-51
2022/12/24 08:18:01;;;;;;;4.13;3.93;;;8.30;99.90;;;;;;5065806;28;20238;-50
2022/12/24 08:20:28;;;;;;;8.63;8.20;;;8.30;99.90;;;;;;5068652;28;20218;-50
2022/12/24 08:22:55;;;;;;;8.10;6.37;;;8.30;99.90;;;;;;5066395;28;20199;-51
2022/12/24 08:25:23;;;;;;;1.93;1.30;;;8.30;99.90;;;;;;5062631;28;20207;-51
2022/12/24 08:27:56;;;;;;;3.10;2.90;;;8.20;99.90;;;;;;5069074;28;20218;-50
2022/12/24 08:30:23;;;;;;;2.47;2.23;;;8.30;99.90;;;;;;5067195;28;20226;-50
2022/12/24 08:32:50;;;;;;;1.73;1.57;;;8.30;99.90;;;;;;5065429;28;20224;-50
2022/12/24 08:35:17;;;;;;;1.60;1.50;;;8.30;99.90;;;;;;5058032;28;20202;-51
2022/12/24 08:37:44;;;;;;;1.47;1.47;;;8.30;99.90;;;;;;5060765;28;20691;-50
2022/12/24 08:40:12;;;;;;;1.43;1.00;;;8.40;99.90;;;;;;5065400;28;20694;-50
2022/12/24 08:42:41;;;;;;;2.70;1.30;;;8.40;99.90;;;;;;5060409;28;20262;-50
2022/12/24 08:45:10;;;;;;;2.30;1.33;;;8.40;99.90;;;;;;5064125;28;20201;-50
2022/12/24 08:47:37;;;;;;;2.00;1.87;;;8.30;99.90;;;;;;5064952;28;20206;-51
2022/12/24 08:50:05;;;;;;;2.10;1.10;;;8.30;99.90;;;;;;5066661;28;20732;-50
2022/12/24 08:52:32;;;;;;;2.20;0.60;;;8.40;99.90;;;;;;5064930;28;20280;-51
2022/12/24 08:54:59;;;;;;;1.67;0.90;;;8.40;99.90;;;;;;5056841;28;20201;-50
2022/12/24 08:57:26;;;;;;;1.97;1.23;;;8.40;99.90;;;;;;5064599;28;20207;-50
2022/12/24 08:59:54;;;;;;;1.50;1.00;;;8.30;99.90;;;;;;5068249;28;20222;-50
2022/12/24 09:02:21;;;;;;;2.20;1.00;;;8.30;99.90;;;;;;5069589;28;20200;-51
2022/12/24 09:04:49;;;;;;;1.90;1.27;;;8.20;99.90;;;;;;5061779;28;20205;-50
2022/12/24 09:07:16;;;;;;;0.80;0.80;;;8.20;99.90;;;;;;5066973;28;20195;-50
2022/12/24 09:09:43;;;;;;;1.23;0.90;;;8.20;99.90;;;;;;5063340;28;20234;-50
2022/12/24 09:12:10;;;;;;;0.50;0.50;;;8.20;99.90;;;;;;5063789;28;20755;-51
2022/12/24 09:14:37;;;;;;;0.80;0.80;;;8.20;99.90;;;;;;5061316;28;20194;-50
2022/12/24 09:17:05;;;;;;;0.50;0.50;;;8.20;99.90;;;;;;5058707;28;20257;-52
2022/12/24 09:19:32;;;;;;;1.70;0.93;;;8.30;99.90;;;;;;5063859;28;20218;-50
2022/12/24 09:22:00;;;;;;;1.40;0.60;;;8.30;99.90;;;;;;5066042;28;20196;-50
2022/12/24 09:24:27;;;;;;;1.63;1.20;;;8.40;99.90;;;;;;5058298;28;20654;-50
2022/12/24 09:26:55;;;;;;;1.37;0.77;;;8.40;99.90;;;;;;5065120;28;20231;-51
2022/12/24 09:29:22;;;;;;;0.30;0.30;;;8.40;99.90;;;;;;5056684;28;20230;-50
2022/12/24 09:31:49;;;;;;;0.73;0.40;;;8.40;99.90;;;;;;5068158;28;20216;-51
2022/12/24 09:34:17;;;;;;;0.50;0.50;;;8.40;99.90;;;;;;5055417;28;20195;-50
2022/12/24 09:36:45;;;;;;;0.53;0.40;;;8.40;99.90;;;;;;5066171;28;20200;-51
2022/12/24 09:39:11;;;;;;;0.50;0.50;;;8.50;99.90;;;;;;5067821;28;20230;-51
2022/12/24 09:41:49;;;;;;;0.40;0.40;;;8.50;99.90;;;;;;5061085;28;20310;-51
2022/12/24 09:44:29;;;;;;;1.53;0.20;;;8.50;99.90;;;;;;5069053;28;20219;-51
2022/12/24 09:46:59;;;;;;;0.30;0.20;;;8.50;99.90;;;;;;5056411;28;20198;-50
2022/12/24 09:49:36;;;;;;;0.40;0.20;;;8.60;99.90;;;;;;5065945;28;20454;-51
2022/12/24 09:52:09;;;;;;;0.50;0.50;;;8.70;99.90;;;;;;5054078;28;20320;-51
2022/12/24 09:54:43;;;;;;;0.63;0.63;;;8.70;99.90;;;;;;5068994;28;20799;-52
2022/12/24 09:57:17;;;;;;;1.43;0.20;;;8.70;99.90;;;;;;5052222;28;20228;-51
2022/12/24 09:59:46;;;;;;;0.60;0.60;;;8.70;99.90;;;;;;5062244;28;20708;-50
2022/12/24 10:02:16;;;;;;;1.53;0.53;;;8.70;99.90;;;;;;5062810;28;20223;-51
2022/12/24 10:04:46;;;;;;;0.73;0.73;;;8.80;99.90;;;;;;5069028;28;20246;-51
2022/12/24 10:07:29;;;;;;;1.60;0.63;;;8.80;99.90;;;;;;5069663;28;20228;-50
2022/12/24 10:10:06;;;;;;;1.97;1.20;;;8.80;99.90;;;;;;5066134;28;20572;-52
2022/12/24 10:12:41;;;;;;;1.33;1.00;;;8.80;99.90;;;;;;5070501;28;20226;-51
2022/12/24 10:15:16;;;;;;;1.60;1.50;;;8.90;99.90;;;;;;5068857;28;20202;-51
2022/12/24 10:17:56;;;;;;;4.50;3.07;;;8.90;99.90;;;;;;5066794;28;20607;-50
2022/12/24 10:20:35;;;;;;;1.27;1.17;;;8.90;99.90;;;;;;5058693;28;20203;-51
2022/12/24 10:23:11;;;;;;;0.83;0.83;;;9.00;99.90;;;;;;5062948;28;20210;-50
2022/12/24 10:25:47;;;;;;;1.10;1.00;;;9.00;99.90;;;;;;5066689;28;20248;-51
2022/12/24 10:28:16;;;;;;;2.77;1.63;;;9.10;99.90;;;;;;5063966;28;20789;-51
2022/12/24 10:30:47;;;;;;;1.53;1.43;;;9.10;99.90;;;;;;5065627;28;20621;-51
2022/12/24 10:33:19;;;;;;;1.23;1.13;;;9.00;99.90;;;;;;5069628;28;20264;-51
2022/12/24 10:35:53;;;;;;;1.20;1.10;;;9.00;99.90;;;;;;5059405;28;20288;-51
2022/12/24 10:38:20;;;;;;;0.60;0.60;;;9.10;99.90;;;;;;5064747;28;20231;-51
2022/12/24 10:40:50;;;;;;;0.80;0.80;;;9.10;99.90;;;;;;5065342;28;20195;-52
2022/12/24 10:43:19;;;;;;;1.33;1.23;;;9.10;99.90;;;;;;5069640;28;20199;-50
2022/12/24 10:45:48;;;;;;;0.90;0.90;;;9.10;99.90;;;;;;5068827;28;20207;-51
2022/12/24 10:48:22;;;;;;;1.37;1.27;;;9.10;99.90;;;;;;5060042;28;20296;-52
2022/12/24 10:51:00;;;;;;;0.50;0.50;;;9.10;99.90;;;;;;5066598;28;20246;-51
2022/12/24 10:53:38;;;;;;;0.40;0.40;;;9.10;99.90;;;;;;5068924;28;20268;-51
2022/12/24 10:56:09;;;;;;;0.53;0.40;;;9.10;99.90;;;;;;5056524;28;20221;-51
2022/12/24 10:58:37;;;;;;;0.60;0.60;;;9.20;99.90;;;;;;5069507;28;20239;-51
2022/12/24 11:01:05;;;;;;;0.90;0.90;;;9.10;99.90;;;;;;5063900;28;20670;-51
2022/12/24 11:03:33;;;;;;;0.80;0.80;;;9.10;99.90;;;;;;5070582;28;20199;-52
2022/12/24 11:06:11;;;;;;;1.70;1.20;;;9.10;99.90;;;;;;5073412;28;20253;-51
2022/12/24 11:08:40;;;;;;;2.23;2.00;;;9.10;99.90;;;;;;5069443;28;20239;-51
2022/12/24 11:11:09;;;;;;;1.60;1.50;;;9.10;99.90;;;;;;5064462;28;20684;-51
2022/12/24 11:13:39;;;;;;;1.67;1.60;;;9.10;99.90;;;;;;5069004;28;20207;-51
2022/12/24 11:16:13;;;;;;;5.33;2.80;;;9.10;99.90;;;;;;5068690;28;20676;-51
2022/12/24 11:18:48;;;;;;;2.80;2.23;;;9.10;99.90;;;;;;5071193;28;20230;-50
2022/12/24 11:21:25;;;;;;;1.90;1.80;;;9.10;99.90;;;;;;5062492;28;20206;-50
2022/12/24 11:23:55;;;;;;;2.73;2.53;;;9.10;99.90;;;;;;5088555;22;20296;-52
2022/12/24 11:26:25;;;;;;;2.40;2.17;;;9.00;99.90;;;;;;5071929;28;20214;-52
2022/12/24 11:29:15;;;;;;;1.87;1.77;;;9.10;99.90;;;;;;5072243;28;20199;-51
2022/12/24 11:31:43;;;;;;;2.03;1.83;;;9.10;99.90;;;;;;5072096;28;20226;-52
2022/12/24 11:34:24;;;;;;;3.10;1.50;;;9.10;99.90;;;;;;5060113;28;20219;-52
2022/12/24 11:36:57;;;;;;;2.27;1.43;;;9.10;99.90;;;;;;5051517;28;20227;-52
2022/12/24 11:39:26;;;;;;;2.10;2.00;;;9.00;99.90;;;;;;5046982;28;20207;-52
2022/12/24 11:41:55;;;;;;;3.10;2.77;;;8.90;99.90;;;;;;5053870;28;20195;-52
2022/12/24 11:44:26;;;;;;;4.00;3.20;;;8.90;99.90;;;;;;5058541;28;20225;-52
2022/12/24 11:46:57;;;;;;;5.17;3.53;;;8.90;99.90;;;;;;5053752;28;20297;-53
2022/12/24 11:49:26;;;;;;;7.63;5.23;;;8.90;99.90;;;;;;5051633;28;20210;-52
2022/12/24 11:52:23;;;;;;;5.33;4.90;;;8.90;99.90;;;;;;5055847;28;20240;-52
2022/12/24 11:55:14;;;;;;;7.00;6.40;;;8.90;99.90;;;;;;5050899;28;20207;-52
2022/12/24 11:57:48;;;;;;;11.00;9.93;;;8.90;99.90;;;;;;5049421;28;20243;-52
2022/12/24 12:00:15;;;;;;;8.57;7.77;;;8.80;99.90;;;;;;5046758;28;20214;-52
2022/12/24 12:02:46;;;;;;;7.73;6.20;;;8.70;99.90;;;;;;5055773;28;20213;-52
2022/12/24 12:05:17;;;;;;;6.00;4.80;;;8.80;99.90;;;;;;5049659;28;20204;-53
2022/12/24 12:07:50;;;;;;;4.43;4.13;;;8.80;99.90;;;;;;5043100;28;20690;-52
2022/12/24 12:10:21;;;;;;;4.83;4.20;;;8.90;99.90;;;;;;5049045;28;20212;-52
2022/12/24 12:12:56;;;;;;;5.47;5.17;;;9.00;99.90;;;;;;5052156;28;20286;-52
2022/12/24 12:15:25;;;;;;;4.80;4.37;;;8.90;99.90;;;;;;5053523;28;20211;-53
2022/12/24 12:17:56;;;;;;;5.53;5.03;;;8.90;99.90;;;;;;5049651;28;20208;-53
2022/12/24 12:20:27;;;;;;;5.07;4.27;;;8.90;99.90;;;;;;5053075;28;20204;-52
2022/12/24 12:23:00;;;;;;;4.43;4.13;;;9.00;99.90;;;;;;5049539;28;20228;-53
2022/12/24 12:25:34;;;;;;;2.83;2.67;;;8.90;99.90;;;;;;5044414;28;20212;-52
2022/12/24 12:28:06;;;;;;;3.63;3.43;;;8.90;99.90;;;;;;5050651;28;20211;-51
2022/12/24 12:30:37;;;;;;;2.60;2.40;;;8.80;99.90;;;;;;5052270;28;20669;-52
2022/12/24 12:33:15;;;;;;;3.37;2.50;;;8.80;99.90;;;;;;5056163;28;20230;-52
2022/12/24 12:35:43;;;;;;;2.07;1.97;;;8.80;99.90;;;;;;5053438;28;20200;-52
2022/12/24 12:38:16;;;;;;;2.07;1.97;;;8.80;99.90;;;;;;5048654;28;20211;-53
2022/12/24 12:40:59;;;;;;;1.97;1.87;;;8.80;99.90;;;;;;5051254;28;20720;-52
2022/12/24 12:43:40;;;;;;;4.97;1.70;;;8.70;99.90;;;;;;5050783;28;20227;-52
2022/12/24 12:46:19;;;;;;;1.30;1.20;;;8.70;99.90;;;;;;5051146;28;20200;-52
2022/12/24 12:49:04;;;;;;;1.87;1.40;;;8.70;99.90;;;;;;5051603;28;20207;-52
2022/12/24 12:51:42;;;;;;;2.33;2.13;;;8.70;99.90;;;;;;5050713;28;20226;-52
2022/12/24 12:54:26;;;;;;;2.30;2.20;;;8.70;99.90;;;;;;5051654;28;20234;-52
2022/12/24 12:57:02;;;;;;;2.93;2.27;;;8.60;99.90;;;;;;5050423;28;20200;-52
2022/12/24 12:59:35;;;;;;;2.37;2.27;;;8.60;99.90;;;;;;5049482;28;20215;-52
2022/12/24 13:02:18;;;;;;;1.73;1.63;;;8.70;99.90;;;;;;5037927;28;20199;-52
2022/12/24 13:05:25;;;;;;;1.63;1.63;;;8.70;99.90;;;;;;5051193;28;20226;-51
2022/12/24 13:08:10;;;;;;;4.20;3.87;;;8.70;99.90;;;;;;5048583;28;20200;-52
2022/12/24 13:10:52;;;;;;;4.77;4.27;;;8.70;99.90;;;;;;5048704;28;20666;-52
2022/12/24 13:13:50;;;;;;;3.50;3.40;;;8.80;99.90;;;;;;5051172;28;20310;-52
2022/12/24 13:16:42;;;;;;;3.47;3.33;;;8.80;99.90;;;;;;5055080;28;20226;-52
2022/12/24 13:19:25;;;;;;;4.63;4.33;;;8.80;99.90;;;;;;5045526;28;20677;-52